Terminal Aerodrome Forecast
Issued by NWS

Home | Current Version | Previous Version | Text Only | Print | Product List | Glossary On
Versions: 1 2 3 4 5 6 7 8 9 10 11 12 13 14 15 16 17
000
FTUS42 KTBW 121100
TAFRSW
TAF
KRSW 121139Z 1212/1312 09005KT P6SM FEW020 BKN250
     FM121500 13006KT P6SM SCT035 SCT250
     FM121700 VRB05KT P6SM VCTS SCT035CB BKN100
     FM122200 09006KT P6SM SCT040 SCT130 BKN250
     FM130200 09004KT P6SM SCT250=

USA.gov is the U.S. government's official web portal to all federal, state and local government web resources and services.